createdAt,value
2019-06-18T00:00:14.053Z,0
2019-06-18T00:01:13.969Z,0
2019-06-18T00:02:14.045Z,0
2019-06-18T00:03:13.986Z,0
2019-06-18T00:04:14.062Z,0
2019-06-18T00:05:14.045Z,0
2019-06-18T00:06:14.046Z,0
2019-06-18T00:07:13.981Z,0
2019-06-18T00:08:14.046Z,0
2019-06-18T00:09:13.990Z,0
2019-06-18T00:10:14.052Z,0
2019-06-18T00:11:13.990Z,0
2019-06-18T00:12:14.062Z,0
2019-06-18T00:13:14.058Z,0
2019-06-18T00:14:13.996Z,0
2019-06-18T00:15:13.995Z,0
2019-06-18T00:16:14.070Z,0
2019-06-18T00:17:13.995Z,0
2019-06-18T00:18:13.990Z,0
2019-06-18T00:19:13.993Z,0
2019-06-18T00:20:14.052Z,0
2019-06-18T00:21:14.059Z,0
2019-06-18T00:22:14.013Z,0
2019-06-18T00:23:14.060Z,0
2019-06-18T00:24:14.026Z,0
2019-06-18T00:25:14.001Z,0
2019-06-18T00:26:13.987Z,0
2019-06-18T00:27:14.019Z,0
2019-06-18T00:28:13.988Z,0
2019-06-18T00:29:14.005Z,0
2019-06-18T00:30:14.081Z,0
2019-06-18T00:31:13.995Z,0
2019-06-18T00:32:14.056Z,0
2019-06-18T00:33:14.077Z,0
2019-06-18T00:34:14.064Z,0
2019-06-18T00:35:14.085Z,0
2019-06-18T00:36:13.978Z,0
2019-06-18T00:37:14.038Z,0
2019-06-18T00:38:14.059Z,0
2019-06-18T00:39:14.066Z,0
2019-06-18T00:40:22.990Z,0
2019-06-18T00:41:13.971Z,0
2019-06-18T00:42:16.748Z,0
2019-06-18T00:43:14.039Z,0
2019-06-18T00:44:14.013Z,0
2019-06-18T00:45:14.057Z,0
2019-06-18T00:46:13.992Z,0
2019-06-18T00:47:16.641Z,0
2019-06-18T00:48:13.997Z,0
2019-06-18T00:49:14.062Z,0
2019-06-18T00:50:16.522Z,0
2019-06-18T00:51:16.698Z,0
2019-06-18T00:52:14.069Z,0
2019-06-18T00:53:14.068Z,0
2019-06-18T00:54:14.005Z,0
2019-06-18T00:55:14.067Z,0
2019-06-18T00:56:14.027Z,0
2019-06-18T00:57:14.085Z,0
2019-06-18T00:58:14.061Z,0
2019-06-18T00:59:16.442Z,0
2019-06-18T01:00:14.104Z,0
2019-06-18T01:01:16.787Z,0
2019-06-18T01:02:13.985Z,0
2019-06-18T01:03:14.089Z,0
2019-06-18T01:04:14.033Z,0
2019-06-18T01:05:14.015Z,0
2019-06-18T01:06:14.098Z,0
2019-06-18T01:07:14.035Z,0
2019-06-18T01:08:13.993Z,0
2019-06-18T01:09:16.450Z,0
2019-06-18T01:10:16.711Z,0
2019-06-18T01:11:14.074Z,0
2019-06-18T01:12:14.012Z,0
2019-06-18T01:13:16.631Z,0
2019-06-18T01:14:14.006Z,0
2019-06-18T01:15:14.075Z,0
2019-06-18T01:16:21.738Z,0
2019-06-18T01:17:16.744Z,0
2019-06-18T01:18:14.045Z,0
2019-06-18T01:19:14.095Z,0
2019-06-18T01:20:14.141Z,0
2019-06-18T01:21:14.100Z,0
2019-06-18T01:22:14.118Z,0
2019-06-18T01:23:14.058Z,0
2019-06-18T01:24:14.144Z,0
2019-06-18T01:25:14.110Z,0
2019-06-18T01:26:14.289Z,0
2019-06-18T01:27:14.106Z,0
2019-06-18T01:28:14.125Z,0
2019-06-18T01:29:14.048Z,0
2019-06-18T01:30:14.039Z,0
2019-06-18T01:31:14.048Z,0
2019-06-18T01:32:14.110Z,0
2019-06-18T01:33:14.128Z,0
2019-06-18T01:34:14.040Z,0
2019-06-18T01:35:14.038Z,0
2019-06-18T01:36:14.042Z,0
2019-06-18T01:37:14.121Z,0
2019-06-18T01:38:14.105Z,0
2019-06-18T01:39:14.113Z,0
2019-06-18T01:40:14.103Z,0
2019-06-18T01:41:14.042Z,0
2019-06-18T01:42:14.122Z,0
2019-06-18T01:43:14.043Z,0
2019-06-18T01:44:14.116Z,0
2019-06-18T01:45:14.065Z,0
2019-06-18T01:46:14.097Z,0
2019-06-18T01:47:14.056Z,0
2019-06-18T01:48:14.102Z,0
2019-06-18T01:49:14.113Z,0
2019-06-18T01:50:14.114Z,0
2019-06-18T01:51:14.052Z,0
2019-06-18T01:52:14.017Z,0
2019-06-18T01:53:14.117Z,0
2019-06-18T01:54:14.010Z,0
2019-06-18T01:55:14.052Z,0
2019-06-18T01:56:14.126Z,0
2019-06-18T01:57:14.789Z,0
2019-06-18T01:58:14.133Z,0
2019-06-18T01:59:14.160Z,0
2019-06-18T02:00:14.094Z,0
2019-06-18T02:01:14.134Z,0
2019-06-18T02:02:14.129Z,0
2019-06-18T02:03:14.065Z,0
2019-06-18T02:04:14.131Z,0
2019-06-18T02:05:14.086Z,4
2019-06-18T02:06:14.199Z,4
2019-06-18T02:07:14.085Z,4
2019-06-18T02:08:14.142Z,4
2019-06-18T02:09:14.067Z,0
2019-06-18T02:10:14.097Z,0
2019-06-18T02:11:14.066Z,4
2019-06-18T02:12:14.064Z,4
2019-06-18T02:13:14.072Z,4
2019-06-18T02:14:14.145Z,4
2019-06-18T02:15:14.143Z,4
2019-06-18T02:16:13.996Z,4
2019-06-18T02:17:14.034Z,4
2019-06-18T02:18:14.082Z,8
2019-06-18T02:19:14.006Z,8
2019-06-18T02:20:14.042Z,8
2019-06-18T02:21:14.103Z,8
2019-06-18T02:22:14.091Z,8
2019-06-18T02:23:14.029Z,12
2019-06-18T02:24:13.997Z,12
2019-06-18T02:25:14.003Z,16
2019-06-18T02:26:14.212Z,16
2019-06-18T02:27:14.100Z,20
2019-06-18T02:28:14.212Z,24
2019-06-18T02:29:14.103Z,24
2019-06-18T02:30:14.118Z,28
2019-06-18T02:31:14.349Z,32
2019-06-18T02:32:14.708Z,36
2019-06-18T02:33:14.771Z,40
2019-06-18T02:34:14.070Z,44
2019-06-18T02:35:14.053Z,48
2019-06-18T02:36:14.082Z,56
2019-06-18T02:37:14.157Z,64
2019-06-18T02:38:14.089Z,72
2019-06-18T02:39:14.081Z,80
2019-06-18T02:40:14.165Z,92
2019-06-18T02:41:14.145Z,104
2019-06-18T02:42:14.081Z,116
2019-06-18T02:43:14.148Z,136
2019-06-18T02:44:14.087Z,152
2019-06-18T02:45:14.152Z,168
2019-06-18T02:46:14.163Z,184
2019-06-18T02:47:16.069Z,204
2019-06-18T02:48:14.172Z,228
2019-06-18T02:49:14.173Z,252
2019-06-18T02:50:14.174Z,276
2019-06-18T02:51:14.123Z,300
2019-06-18T02:52:14.096Z,332
2019-06-18T02:53:14.170Z,360
2019-06-18T02:54:14.174Z,396
2019-06-18T02:55:14.239Z,432
2019-06-18T02:56:14.168Z,468
2019-06-18T02:57:14.171Z,508
2019-06-18T02:58:14.164Z,548
2019-06-18T02:59:14.113Z,588
2019-06-18T03:00:14.179Z,616
2019-06-18T03:01:14.181Z,660
2019-06-18T03:02:14.177Z,704
2019-06-18T03:03:14.191Z,752
2019-06-18T03:04:14.110Z,808
2019-06-18T03:05:14.154Z,864
2019-06-18T03:06:14.102Z,924
2019-06-18T03:07:14.167Z,984
2019-06-18T03:08:14.100Z,1052
2019-06-18T03:09:14.114Z,1124
2019-06-18T03:10:14.195Z,1196
2019-06-18T03:11:14.107Z,1272
2019-06-18T03:12:14.106Z,1356
2019-06-18T03:13:14.106Z,1448
2019-06-18T03:14:14.170Z,1544
2019-06-18T03:15:14.179Z,1644
2019-06-18T03:16:14.164Z,1736
2019-06-18T03:17:28.167Z,1836
2019-06-18T03:18:14.086Z,1936
2019-06-18T03:19:14.173Z,2044
2019-06-18T03:20:14.146Z,2148
2019-06-18T03:21:16.127Z,2264
2019-06-18T03:22:14.165Z,2380
2019-06-18T03:23:14.105Z,2500
2019-06-18T03:24:14.083Z,2636
2019-06-18T03:25:14.062Z,2776
2019-06-18T03:26:14.191Z,2912
2019-06-18T03:27:14.194Z,3040
2019-06-18T03:28:14.198Z,3184
2019-06-18T03:29:14.218Z,3340
2019-06-18T03:30:15.248Z,3532
2019-06-18T03:31:15.419Z,3748
2019-06-18T03:32:14.797Z,3944
2019-06-18T03:33:15.428Z,4112
2019-06-18T03:34:15.456Z,4264
2019-06-18T03:35:14.206Z,4392
2019-06-18T03:36:14.202Z,4504
2019-06-18T03:37:14.196Z,4632
2019-06-18T03:38:14.165Z,4800
2019-06-18T03:39:14.199Z,4892
2019-06-18T03:40:14.201Z,4900
2019-06-18T03:41:14.138Z,4948
2019-06-18T03:42:14.134Z,5124
2019-06-18T03:43:14.132Z,5320
2019-06-18T03:44:14.209Z,5528
2019-06-18T03:45:14.135Z,5732
2019-06-18T03:46:14.094Z,5880
2019-06-18T03:47:14.206Z,6036
2019-06-18T03:48:14.149Z,6268
2019-06-18T03:49:14.220Z,6500
2019-06-18T03:50:14.157Z,6808
2019-06-18T03:51:14.152Z,7064
2019-06-18T03:52:14.215Z,7276
2019-06-18T03:53:14.210Z,7444
2019-06-18T03:54:14.141Z,7616
2019-06-18T03:55:14.216Z,7748
2019-06-18T03:56:14.223Z,7848
2019-06-18T03:57:14.199Z,7940
2019-06-18T03:58:14.139Z,8016
2019-06-18T03:59:14.205Z,8076
2019-06-18T04:00:14.135Z,8124
2019-06-18T04:01:14.136Z,8192
2019-06-18T04:02:14.128Z,8216
2019-06-18T04:03:14.130Z,8192
2019-06-18T04:04:14.207Z,8216
2019-06-18T04:05:14.195Z,8280
2019-06-18T04:06:14.217Z,8300
2019-06-18T04:07:14.220Z,8320
2019-06-18T04:08:14.227Z,8316
2019-06-18T04:09:14.153Z,8256
2019-06-18T04:10:14.225Z,8164
2019-06-18T04:11:14.224Z,8112
2019-06-18T04:12:14.230Z,8176
2019-06-18T04:13:14.158Z,8336
2019-06-18T04:14:14.226Z,8688
2019-06-18T04:15:14.225Z,9084
2019-06-18T04:16:14.165Z,9456
2019-06-18T04:17:14.130Z,9660
2019-06-18T04:18:14.217Z,9788
2019-06-18T04:19:14.162Z,9872
2019-06-18T04:20:14.134Z,9840
2019-06-18T04:21:14.148Z,9748
2019-06-18T04:22:14.230Z,9644
2019-06-18T04:23:14.221Z,9604
2019-06-18T04:24:14.147Z,9656
2019-06-18T04:25:14.239Z,9724
2019-06-18T04:26:14.226Z,9744
2019-06-18T04:27:14.226Z,9756
2019-06-18T04:28:14.249Z,9992
2019-06-18T04:29:14.188Z,10236
2019-06-18T04:30:14.318Z,10420
2019-06-18T04:31:14.256Z,10752
2019-06-18T04:32:14.179Z,11196
2019-06-18T04:33:14.258Z,11572
2019-06-18T04:34:14.206Z,11816
2019-06-18T04:35:14.271Z,12104
2019-06-18T04:36:14.179Z,12476
2019-06-18T04:37:14.252Z,12920
2019-06-18T04:38:14.251Z,13196
2019-06-18T04:39:14.278Z,13420
2019-06-18T04:40:14.180Z,13544
2019-06-18T04:41:14.256Z,13656
2019-06-18T04:42:14.248Z,13792
2019-06-18T04:43:14.183Z,14248
2019-06-18T04:44:14.251Z,14960
2019-06-18T04:45:14.190Z,15592
2019-06-18T04:46:14.250Z,16028
2019-06-18T04:47:16.607Z,16356
2019-06-18T04:48:23.740Z,16716
2019-06-18T04:49:14.242Z,17048
2019-06-18T04:50:14.241Z,17332
2019-06-18T04:51:14.243Z,17652
2019-06-18T04:52:14.254Z,18080
2019-06-18T04:53:14.169Z,18580
2019-06-18T04:54:14.168Z,18940
2019-06-18T04:55:14.177Z,19276
2019-06-18T04:56:14.251Z,19628
2019-06-18T04:57:14.266Z,19928
2019-06-18T04:58:14.267Z,20108
2019-06-18T04:59:14.194Z,20312
2019-06-18T05:00:14.173Z,20512
2019-06-18T05:01:14.208Z,20844
2019-06-18T05:02:14.193Z,21260
2019-06-18T05:03:14.205Z,21692
2019-06-18T05:04:14.269Z,22240
2019-06-18T05:05:14.202Z,22584
2019-06-18T05:06:14.212Z,22736
2019-06-18T05:07:14.254Z,23072
2019-06-18T05:08:14.278Z,23104
2019-06-18T05:09:14.254Z,23104
2019-06-18T05:10:14.192Z,23136
2019-06-18T05:11:14.183Z,22720
2019-06-18T05:12:14.192Z,22464
2019-06-18T05:13:14.260Z,22056
2019-06-18T05:14:14.263Z,21572
2019-06-18T05:15:14.190Z,20928
2019-06-18T05:16:14.197Z,21048
2019-06-18T05:17:14.209Z,21360
2019-06-18T05:18:14.283Z,21476
2019-06-18T05:19:14.229Z,21528
2019-06-18T05:20:14.288Z,21840
2019-06-18T05:21:14.206Z,21876
2019-06-18T05:22:14.193Z,21912
2019-06-18T05:23:14.284Z,22024
2019-06-18T05:24:14.289Z,22012
2019-06-18T05:25:14.219Z,22076
2019-06-18T05:26:14.286Z,22328
2019-06-18T05:27:14.174Z,22944
2019-06-18T05:28:14.172Z,23264
2019-06-18T05:29:14.617Z,23584
2019-06-18T05:30:14.238Z,23968
2019-06-18T05:31:14.268Z,24384
2019-06-18T05:32:14.158Z,24864
2019-06-18T05:33:14.277Z,25568
2019-06-18T05:34:14.183Z,25824
2019-06-18T05:35:14.218Z,25792
2019-06-18T05:36:14.175Z,25856
2019-06-18T05:37:14.218Z,25856
2019-06-18T05:38:14.133Z,25952
2019-06-18T05:39:14.221Z,25856
2019-06-18T05:40:14.206Z,25920
2019-06-18T05:41:14.219Z,26400
2019-06-18T05:42:14.211Z,27040
2019-06-18T05:43:14.160Z,29760
2019-06-18T05:44:14.145Z,38016
2019-06-18T05:45:14.137Z,43328
2019-06-18T05:46:14.176Z,43264
2019-06-18T05:47:14.216Z,41216
2019-06-18T05:48:14.198Z,38432
2019-06-18T05:49:14.220Z,39712
2019-06-18T05:50:14.231Z,35520
2019-06-18T05:51:14.232Z,30784
2019-06-18T05:52:14.292Z,34432
2019-06-18T05:53:14.225Z,39392
2019-06-18T05:54:14.294Z,40832
2019-06-18T05:55:14.296Z,39264
2019-06-18T05:56:14.221Z,32928
2019-06-18T05:57:14.271Z,32864
2019-06-18T05:58:14.220Z,29600
2019-06-18T05:59:14.297Z,36096
2019-06-18T06:00:14.221Z,40256
2019-06-18T06:01:14.299Z,40960
2019-06-18T06:02:14.221Z,37312
2019-06-18T06:03:14.189Z,43808
2019-06-18T06:04:14.209Z,49344
2019-06-18T06:05:14.225Z,55680
2019-06-18T06:06:14.301Z,32416
2019-06-18T06:07:16.085Z,27488
2019-06-18T06:08:14.314Z,27712
2019-06-18T06:09:14.250Z,27584
2019-06-18T06:10:14.313Z,32416
2019-06-18T06:11:14.322Z,28928
2019-06-18T06:12:14.278Z,49792
2019-06-18T06:13:14.318Z,50176
2019-06-18T06:14:14.251Z,41280
2019-06-18T06:15:14.320Z,42144
2019-06-18T06:16:14.255Z,47584
2019-06-18T06:17:14.325Z,56896
2019-06-18T06:18:14.258Z,59744
2019-06-18T06:19:17.821Z,50848
2019-06-18T06:20:14.257Z,60608
2019-06-18T06:21:14.322Z,60928
2019-06-18T06:22:14.344Z,37248
2019-06-18T06:23:14.331Z,39968
2019-06-18T06:24:14.333Z,42144
2019-06-18T06:25:14.387Z,66048
2019-06-18T06:26:15.374Z,57728
2019-06-18T06:27:14.261Z,45120
2019-06-18T06:28:14.276Z,49696
2019-06-18T06:29:14.914Z,50912
2019-06-18T06:30:14.259Z,53184
2019-06-18T06:31:14.263Z,52480
2019-06-18T06:32:14.274Z,57664
2019-06-18T06:33:14.266Z,59648
2019-06-18T06:34:14.263Z,57632
2019-06-18T06:35:14.426Z,64960
2019-06-18T06:36:14.348Z,67168
2019-06-18T06:37:14.384Z,70752
2019-06-18T06:38:14.355Z,71808
2019-06-18T06:39:14.336Z,70688
2019-06-18T06:40:14.352Z,69056
2019-06-18T06:41:14.276Z,61760
2019-06-18T06:42:14.350Z,63904
2019-06-18T06:43:14.273Z,50624
2019-06-18T06:44:14.300Z,68640
2019-06-18T06:45:14.342Z,75776
2019-06-18T06:46:14.277Z,76960
2019-06-18T06:47:15.066Z,86752
2019-06-18T06:48:14.367Z,88480
2019-06-18T06:49:29.637Z,84800
2019-06-18T06:50:14.335Z,83808
2019-06-18T06:51:14.351Z,84960
2019-06-18T06:52:14.256Z,78784
2019-06-18T06:53:14.254Z,68224
2019-06-18T06:54:15.433Z,83520
2019-06-18T06:55:14.264Z,89888
2019-06-18T06:56:14.251Z,62848
2019-06-18T06:57:14.338Z,34496
2019-06-18T06:58:23.067Z,38976
2019-06-18T06:59:14.347Z,35104
2019-06-18T07:00:14.285Z,35840
2019-06-18T07:01:14.285Z,36832
2019-06-18T07:02:14.343Z,38336
2019-06-18T07:03:14.296Z,40384
2019-06-18T07:04:14.283Z,40640
2019-06-18T07:05:14.311Z,42432
2019-06-18T07:06:14.214Z,44416
2019-06-18T07:07:14.347Z,46976
2019-06-18T07:08:14.313Z,46848
2019-06-18T07:09:14.233Z,58240
2019-06-18T07:10:14.252Z,47392
2019-06-18T07:11:14.271Z,43968
2019-06-18T07:12:14.342Z,41760
2019-06-18T07:13:14.350Z,39808
2019-06-18T07:14:14.266Z,39392
2019-06-18T07:15:14.336Z,39904
2019-06-18T07:16:14.319Z,42720
2019-06-18T07:17:14.284Z,42016
2019-06-18T07:18:14.270Z,42592
2019-06-18T07:19:14.294Z,41920
2019-06-18T07:20:14.282Z,40352
2019-06-18T07:21:14.368Z,39072
2019-06-18T07:22:14.287Z,39200
2019-06-18T07:23:14.366Z,40928
2019-06-18T07:24:14.362Z,43488
2019-06-18T07:25:14.364Z,47392
2019-06-18T07:26:14.286Z,46848
2019-06-18T07:27:14.305Z,46880
2019-06-18T07:28:16.955Z,46656
2019-06-18T07:29:14.626Z,45984
2019-06-18T07:30:14.301Z,45664
2019-06-18T07:31:14.251Z,53536
2019-06-18T07:32:14.288Z,49792
2019-06-18T07:33:14.244Z,44320
2019-06-18T07:34:14.343Z,44352
2019-06-18T07:35:14.364Z,44128
2019-06-18T07:36:14.279Z,42976
2019-06-18T07:37:14.378Z,43776
2019-06-18T07:38:14.314Z,44000
2019-06-18T07:39:14.381Z,44096
2019-06-18T07:40:14.320Z,42784
2019-06-18T07:41:14.315Z,42496
2019-06-18T07:42:14.386Z,43232
2019-06-18T07:43:14.346Z,43904
2019-06-18T07:44:14.320Z,44576
2019-06-18T07:45:14.322Z,45856
2019-06-18T07:46:14.324Z,46944
2019-06-18T07:47:14.273Z,46976
2019-06-18T07:48:14.306Z,47840
2019-06-18T07:49:14.381Z,47744
2019-06-18T07:50:18.145Z,46528
2019-06-18T07:51:14.275Z,44608
2019-06-18T07:52:14.383Z,42048
2019-06-18T07:53:14.379Z,39168
2019-06-18T07:54:14.401Z,36800
2019-06-18T07:55:14.391Z,35072
2019-06-18T07:56:14.385Z,34080
2019-06-18T07:57:14.387Z,33760
2019-06-18T07:58:14.405Z,34624
2019-06-18T07:59:14.386Z,35744
2019-06-18T08:00:14.387Z,36000
2019-06-18T08:01:14.390Z,36256
2019-06-18T08:02:14.320Z,36576
2019-06-18T08:03:14.301Z,37056
2019-06-18T08:04:14.316Z,38688
2019-06-18T08:05:14.319Z,40960
2019-06-18T08:06:14.317Z,39328
2019-06-18T08:07:14.969Z,39040
2019-06-18T08:08:14.247Z,38080
2019-06-18T08:09:14.423Z,38304
2019-06-18T08:10:14.265Z,36704
2019-06-18T08:11:14.347Z,36768
2019-06-18T08:12:14.290Z,35808
2019-06-18T08:13:14.345Z,34592
2019-06-18T08:14:14.320Z,33280
2019-06-18T08:15:14.246Z,32640
2019-06-18T08:16:14.311Z,32896
2019-06-18T08:17:14.237Z,35360
2019-06-18T08:18:14.390Z,68480
2019-06-18T08:19:14.361Z,67104
2019-06-18T08:20:30.698Z,51840
2019-06-18T08:21:14.311Z,41088
2019-06-18T08:22:17.841Z,40896
2019-06-18T08:23:14.343Z,40352
2019-06-18T08:24:14.428Z,41024
2019-06-18T08:25:14.299Z,43840
2019-06-18T08:26:14.331Z,57536
2019-06-18T08:27:14.353Z,48864
2019-06-18T08:28:14.445Z,55520
2019-06-18T08:29:14.412Z,137920
2019-06-18T08:30:25.948Z,110240
2019-06-18T08:31:14.338Z,144064
2019-06-18T08:32:14.356Z,98912
2019-06-18T08:33:14.386Z,139936
2019-06-18T08:34:14.314Z,137472
2019-06-18T08:35:14.417Z,125440
2019-06-18T08:36:14.421Z,125920
2019-06-18T08:37:14.302Z,118720
2019-06-18T08:38:14.421Z,118080
2019-06-18T08:39:14.419Z,120384
2019-06-18T08:40:14.381Z,123104
2019-06-18T08:41:14.421Z,124576
2019-06-18T08:42:14.327Z,129152
2019-06-18T08:43:14.394Z,132000
2019-06-18T08:44:14.361Z,130528
2019-06-18T08:45:14.364Z,127904
2019-06-18T08:46:14.355Z,127936
2019-06-18T08:47:14.423Z,127168
2019-06-18T08:48:14.309Z,126816
2019-06-18T08:49:14.299Z,125568
2019-06-18T08:50:14.392Z,124384
2019-06-18T08:51:14.357Z,125504
2019-06-18T08:52:14.357Z,125632
2019-06-18T08:53:14.331Z,125472
2019-06-18T08:54:14.425Z,123200
2019-06-18T08:55:14.336Z,120576
2019-06-18T08:56:14.856Z,118624
2019-06-18T08:57:14.331Z,119456
2019-06-18T08:58:14.371Z,122304
2019-06-18T08:59:14.396Z,126112
2019-06-18T09:00:14.306Z,128064
2019-06-18T09:01:14.312Z,131040
2019-06-18T09:02:14.374Z,133472
2019-06-18T09:03:25.721Z,133824
2019-06-18T09:04:14.398Z,132896
2019-06-18T09:05:14.361Z,134240
2019-06-18T09:06:14.349Z,134976
2019-06-18T09:07:14.447Z,136096
2019-06-18T09:08:14.455Z,138592
2019-06-18T09:09:14.477Z,140320
2019-06-18T09:10:14.400Z,141536
2019-06-18T09:11:14.453Z,142944
2019-06-18T09:12:14.455Z,142368
2019-06-18T09:13:14.383Z,142496
2019-06-18T09:14:14.394Z,142624
2019-06-18T09:15:14.400Z,142592
2019-06-18T09:16:14.400Z,141568
2019-06-18T09:17:14.458Z,142464
2019-06-18T09:18:17.251Z,143264
2019-06-18T09:19:14.458Z,142528
2019-06-18T09:20:14.413Z,142528
2019-06-18T09:21:14.461Z,143456
2019-06-18T09:22:14.404Z,145472
2019-06-18T09:23:14.462Z,147328
2019-06-18T09:24:14.476Z,147680
2019-06-18T09:25:14.480Z,148032
2019-06-18T09:26:14.397Z,147168
2019-06-18T09:27:14.462Z,145728
2019-06-18T09:28:14.397Z,145888
2019-06-18T09:29:14.419Z,146592
2019-06-18T09:30:14.480Z,146368
2019-06-18T09:31:14.402Z,148000
2019-06-18T09:32:14.479Z,148736
2019-06-18T09:33:14.471Z,146656
2019-06-18T09:34:14.470Z,146080
2019-06-18T09:35:14.479Z,147200
2019-06-18T09:36:14.399Z,149632
2019-06-18T09:37:14.471Z,151552
2019-06-18T09:38:14.469Z,152672
2019-06-18T09:39:14.423Z,152960
2019-06-18T09:40:14.406Z,154112
2019-06-18T09:41:14.401Z,153920
2019-06-18T09:42:14.478Z,150656
2019-06-18T09:43:14.406Z,143712
2019-06-18T09:44:14.808Z,138624
2019-06-18T09:45:14.569Z,136512
2019-06-18T09:46:14.413Z,136192
2019-06-18T09:47:14.358Z,137536
2019-06-18T09:48:14.358Z,139200
2019-06-18T09:49:14.430Z,137600
2019-06-18T09:50:14.422Z,134784
2019-06-18T09:51:22.954Z,132000
2019-06-18T09:52:14.382Z,128192
2019-06-18T09:53:17.311Z,126464
2019-06-18T09:54:14.341Z,130368
2019-06-18T09:55:14.403Z,138816
2019-06-18T09:56:14.401Z,146560
2019-06-18T09:57:14.472Z,151040
2019-06-18T09:58:14.404Z,151552
2019-06-18T09:59:14.434Z,148320
2019-06-18T10:00:14.433Z,142272
2019-06-18T10:01:14.437Z,135392
2019-06-18T10:02:14.388Z,130208
2019-06-18T10:03:14.405Z,128704
2019-06-18T10:04:14.377Z,130240
2019-06-18T10:05:14.410Z,138144
2019-06-18T10:06:14.318Z,147648
2019-06-18T10:07:14.439Z,156576
2019-06-18T10:08:14.486Z,163648
2019-06-18T10:10:14.431Z,170112
2019-06-18T10:11:14.428Z,168672
2019-06-18T10:12:14.430Z,166304
2019-06-18T10:13:14.417Z,161888
2019-06-18T10:14:14.487Z,157696
2019-06-18T10:15:14.424Z,155616
2019-06-18T10:16:14.492Z,153408
2019-06-18T10:17:14.489Z,153888
2019-06-18T10:18:14.437Z,155872
2019-06-18T10:19:14.692Z,158560
2019-06-18T10:20:14.434Z,162624
2019-06-18T10:21:14.530Z,165536
2019-06-18T10:22:14.438Z,166944
2019-06-18T10:23:14.510Z,164832
2019-06-18T10:24:14.509Z,161536
2019-06-18T10:25:14.530Z,157184
2019-06-18T10:26:14.507Z,154400
2019-06-18T10:27:14.439Z,155872
2019-06-18T10:28:14.381Z,158752
2019-06-18T10:29:28.961Z,162368
2019-06-18T10:30:14.398Z,168512
2019-06-18T10:31:14.486Z,172960
2019-06-18T10:32:14.385Z,172928
2019-06-18T10:33:14.428Z,167520
2019-06-18T10:34:14.500Z,161376
2019-06-18T10:35:14.493Z,155232
2019-06-18T10:36:14.505Z,153280
2019-06-18T10:37:14.501Z,155424
2019-06-18T10:38:14.395Z,162848
2019-06-18T10:39:14.471Z,171424
2019-06-18T10:40:14.407Z,180704
2019-06-18T10:41:18.330Z,183328
2019-06-18T10:42:14.341Z,179488
2019-06-18T10:43:14.435Z,171744
2019-06-18T10:44:14.384Z,162944
2019-06-18T10:45:14.468Z,160992
2019-06-18T10:46:14.465Z,161152
2019-06-18T10:47:14.470Z,163872
2019-06-18T10:48:14.533Z,166848
2019-06-18T10:49:18.405Z,165920
2019-06-18T10:50:14.524Z,168064
2019-06-18T10:51:14.468Z,168192
2019-06-18T10:52:14.459Z,168320
2019-06-18T10:53:14.464Z,165728
2019-06-18T10:54:14.535Z,170528
2019-06-18T10:55:14.463Z,169440
2019-06-18T10:56:14.466Z,166272
2019-06-18T10:57:14.530Z,164160
2019-06-18T10:58:14.483Z,162464
2019-06-18T10:59:14.482Z,156992
2019-06-18T11:00:14.461Z,155648
2019-06-18T11:01:14.485Z,159456
2019-06-18T11:02:14.454Z,156576
2019-06-18T11:03:14.482Z,159232
2019-06-18T11:04:14.517Z,158720
2019-06-18T11:05:14.438Z,153856
2019-06-18T11:06:14.401Z,155808
2019-06-18T11:07:14.485Z,152736
2019-06-18T11:08:14.549Z,160800
2019-06-18T11:09:14.542Z,168736
2019-06-18T11:10:14.550Z,176544
2019-06-18T11:11:14.545Z,177408
2019-06-18T11:12:14.495Z,174304
2019-06-18T11:13:14.474Z,172000
2019-06-18T11:14:15.961Z,162304
2019-06-18T11:15:14.570Z,156192
2019-06-18T11:16:14.545Z,153088
2019-06-18T11:17:14.545Z,156704
2019-06-18T11:18:14.481Z,163648
2019-06-18T11:19:14.545Z,166048
2019-06-18T11:20:14.481Z,167712
2019-06-18T11:21:14.546Z,160768
2019-06-18T11:22:14.847Z,157408
2019-06-18T11:23:30.220Z,152288
2019-06-18T11:24:14.593Z,144288
2019-06-18T11:25:17.269Z,143328
2019-06-18T11:26:14.561Z,148288
2019-06-18T11:27:14.555Z,155872
2019-06-18T11:28:14.488Z,164736
2019-06-18T11:29:14.555Z,173376
2019-06-18T11:30:14.555Z,180128
2019-06-18T11:31:14.559Z,180352
2019-06-18T11:32:14.500Z,171712
2019-06-18T11:33:14.578Z,164544
2019-06-18T11:34:14.498Z,161536
2019-06-18T11:35:14.562Z,157024
2019-06-18T11:36:14.563Z,154048
2019-06-18T11:37:14.566Z,154816
2019-06-18T11:38:14.501Z,157952
2019-06-18T11:39:14.508Z,153472
2019-06-18T11:40:14.514Z,151968
2019-06-18T11:41:14.568Z,152928
2019-06-18T11:42:14.496Z,153280
2019-06-18T11:43:14.578Z,163168
2019-06-18T11:44:14.566Z,170688
2019-06-18T11:45:14.578Z,172160
2019-06-18T11:46:14.567Z,173216
2019-06-18T11:47:14.503Z,161024
2019-06-18T11:48:14.560Z,152032
2019-06-18T11:49:14.493Z,158496
2019-06-18T11:50:14.563Z,162336
2019-06-18T11:51:14.495Z,161824
2019-06-18T11:52:28.932Z,149024
2019-06-18T11:53:14.565Z,142976
2019-06-18T11:54:14.560Z,134368
2019-06-18T11:55:14.574Z,150304
2019-06-18T11:56:14.592Z,164064
2019-06-18T11:57:14.568Z,165888
2019-06-18T11:58:14.492Z,165888
2019-06-18T11:59:14.437Z,163328
2019-06-18T12:00:14.465Z,164640
2019-06-18T12:01:14.537Z,162528
2019-06-18T12:02:14.448Z,158880
2019-06-18T12:03:14.579Z,164672
2019-06-18T12:04:14.467Z,166400
2019-06-18T12:05:14.440Z,163424
2019-06-18T12:06:14.525Z,158816
2019-06-18T12:07:14.498Z,151904
2019-06-18T12:08:14.582Z,160288
2019-06-18T12:09:14.589Z,158400
2019-06-18T12:10:14.584Z,160192
2019-06-18T12:11:14.586Z,162400
2019-06-18T12:12:14.519Z,164000
2019-06-18T12:13:14.520Z,162240
2019-06-18T12:14:14.589Z,163136
2019-06-18T12:15:14.591Z,162272
2019-06-18T12:16:14.523Z,160672
2019-06-18T12:17:14.591Z,164256
2019-06-18T12:18:14.465Z,160416
2019-06-18T12:19:14.572Z,158912
2019-06-18T12:20:14.582Z,157248
2019-06-18T12:21:14.582Z,156352
2019-06-18T12:22:14.574Z,152160
2019-06-18T12:23:16.691Z,154240
2019-06-18T12:24:14.497Z,156320
2019-06-18T12:25:14.456Z,160064
2019-06-18T12:26:14.787Z,162336
2019-06-18T12:27:14.551Z,162688
2019-06-18T12:28:14.516Z,157600
2019-06-18T12:29:14.586Z,159456
2019-06-18T12:30:14.595Z,155104
2019-06-18T12:31:14.470Z,157024
2019-06-18T12:32:14.564Z,88384
2019-06-18T12:33:14.508Z,44448
2019-06-18T12:34:14.565Z,133376
2019-06-18T12:35:14.541Z,36224
2019-06-18T12:36:14.507Z,35968
2019-06-18T12:37:14.554Z,35776
2019-06-18T12:39:14.543Z,41600
2019-06-18T12:40:14.569Z,48512
2019-06-18T12:41:14.616Z,59232
2019-06-18T12:42:14.614Z,156032
2019-06-18T12:43:14.555Z,145856
2019-06-18T12:44:14.556Z,110528
2019-06-18T12:45:14.649Z,104384
2019-06-18T12:46:14.619Z,82336
2019-06-18T12:47:14.561Z,109280
2019-06-18T12:48:14.619Z,109504
2019-06-18T12:49:14.622Z,114976
2019-06-18T12:50:14.548Z,134496
2019-06-18T12:51:14.617Z,150016
2019-06-18T12:52:14.552Z,149856
2019-06-18T12:53:14.619Z,131968
2019-06-18T12:54:14.618Z,128736
2019-06-18T12:55:14.626Z,129952
2019-06-18T12:56:14.639Z,136128
2019-06-18T12:57:14.623Z,150976
2019-06-18T12:58:14.611Z,142016
2019-06-18T12:59:26.672Z,150688
2019-06-18T13:00:14.594Z,150784
2019-06-18T13:01:14.532Z,155712
2019-06-18T13:02:14.606Z,161472
2019-06-18T13:03:14.560Z,156224
2019-06-18T13:04:14.521Z,138176
2019-06-18T13:05:14.565Z,97152
2019-06-18T13:06:14.559Z,104352
2019-06-18T13:07:14.502Z,139168
2019-06-18T13:08:14.649Z,147392
2019-06-18T13:09:14.639Z,143168
2019-06-18T13:10:14.562Z,136064